createdAt,value
2018-08-03T02:55:20.670Z,3
2018-08-03T03:03:51.089Z,7
2018-08-03T03:07:21.442Z,10
2018-08-03T03:09:21.490Z,13
2018-08-03T03:11:21.590Z,17
2018-08-03T03:12:51.629Z,20
2018-08-03T03:13:51.671Z,23
2018-08-03T03:14:51.740Z,27
2018-08-03T03:15:51.823Z,30
2018-08-03T03:16:21.955Z,33
2018-08-03T03:16:51.871Z,37
2018-08-03T03:17:51.941Z,40
2018-08-03T03:18:21.997Z,43
2018-08-03T03:18:51.993Z,47
2018-08-03T03:19:22.358Z,50
2018-08-03T03:19:52.168Z,53
2018-08-03T03:20:22.170Z,60
2018-08-03T03:20:52.127Z,63
2018-08-03T03:21:22.168Z,67
2018-08-03T03:21:52.200Z,73
2018-08-03T03:22:22.274Z,77
2018-08-03T03:22:52.257Z,83
2018-08-03T03:23:22.281Z,90
2018-08-03T03:23:52.361Z,97
2018-08-03T03:24:22.371Z,103
2018-08-03T03:24:52.455Z,110
2018-08-03T03:25:22.420Z,117
2018-08-03T03:25:52.484Z,123
2018-08-03T03:26:22.627Z,133
2018-08-03T03:26:52.628Z,140
2018-08-03T03:27:22.535Z,150
2018-08-03T03:27:52.613Z,157
2018-08-03T03:28:22.636Z,167
2018-08-03T03:28:52.665Z,177
2018-08-03T03:29:22.695Z,187
2018-08-03T03:29:52.674Z,197
2018-08-03T03:30:22.810Z,210
2018-08-03T03:30:52.749Z,217
2018-08-03T03:31:22.954Z,227
2018-08-03T03:31:52.785Z,240
2018-08-03T03:32:22.844Z,253
2018-08-03T03:32:52.921Z,267
2018-08-03T03:33:22.913Z,280
2018-08-03T03:33:52.913Z,293
2018-08-03T03:34:22.953Z,310
2018-08-03T03:34:52.969Z,323
2018-08-03T03:35:23.033Z,340
2018-08-03T03:35:53.048Z,357
2018-08-03T03:36:23.356Z,373
2018-08-03T03:36:53.125Z,390
2018-08-03T03:37:23.142Z,407
2018-08-03T03:37:53.164Z,423
2018-08-03T03:38:23.265Z,440
2018-08-03T03:38:53.251Z,457
2018-08-03T03:39:23.438Z,477
2018-08-03T03:39:53.327Z,497
2018-08-03T03:40:23.327Z,517
2018-08-03T03:40:53.410Z,537
2018-08-03T03:41:23.657Z,560
2018-08-03T03:41:53.478Z,580
2018-08-03T03:42:23.500Z,600
2018-08-03T03:42:53.535Z,623
2018-08-03T03:43:23.541Z,643
2018-08-03T03:43:53.590Z,667
2018-08-03T03:44:23.661Z,690
2018-08-03T03:44:53.760Z,713
2018-08-03T03:45:23.724Z,740
2018-08-03T03:45:53.729Z,763
2018-08-03T03:46:24.038Z,790
2018-08-03T03:46:53.740Z,817
2018-08-03T03:47:23.830Z,843
2018-08-03T03:47:53.882Z,867
2018-08-03T03:48:23.901Z,893
2018-08-03T03:48:53.910Z,923
2018-08-03T03:49:23.975Z,950
2018-08-03T03:49:53.971Z,980
2018-08-03T03:50:24.013Z,1010
2018-08-03T03:50:54.066Z,1043
2018-08-03T03:51:24.188Z,1070
2018-08-03T03:51:54.108Z,1100
2018-08-03T03:52:24.116Z,1133
2018-08-03T03:52:54.148Z,1167
2018-08-03T03:53:24.187Z,1200
2018-08-03T03:53:54.209Z,1233
2018-08-03T03:54:24.213Z,1267
2018-08-03T03:54:54.230Z,1300
2018-08-03T03:55:24.297Z,1333
2018-08-03T03:55:54.377Z,1370
2018-08-03T03:56:24.526Z,1407
2018-08-03T03:56:54.395Z,1443
2018-08-03T03:57:24.443Z,1480
2018-08-03T03:57:54.461Z,1513
2018-08-03T03:58:24.477Z,1553
2018-08-03T03:58:54.507Z,1590
2018-08-03T03:59:24.684Z,1630
2018-08-03T03:59:54.531Z,1670
2018-08-03T04:00:24.663Z,1707
2018-08-03T04:00:54.612Z,1743
2018-08-03T04:01:24.688Z,1783
2018-08-03T04:01:54.774Z,1827
2018-08-03T04:02:24.833Z,1867
2018-08-03T04:02:54.749Z,1910
2018-08-03T04:03:24.769Z,1947
2018-08-03T04:03:54.919Z,1993
2018-08-03T04:04:24.943Z,2037
2018-08-03T04:04:54.842Z,2080
2018-08-03T04:05:24.893Z,2123
2018-08-03T04:05:54.985Z,2163
2018-08-03T04:06:24.938Z,2210
2018-08-03T04:06:55.052Z,2253
2018-08-03T04:07:25.002Z,2297
2018-08-03T04:07:55.126Z,2340
2018-08-03T04:08:25.070Z,2383
2018-08-03T04:08:55.093Z,2427
2018-08-03T04:09:25.676Z,2473
2018-08-03T04:09:55.193Z,2517
2018-08-03T04:10:25.225Z,2560
2018-08-03T04:10:55.228Z,2603
2018-08-03T04:11:25.312Z,2647
2018-08-03T04:11:55.275Z,2693
2018-08-03T04:12:25.396Z,2737
2018-08-03T04:12:55.347Z,2777
2018-08-03T04:13:25.439Z,2827
2018-08-03T04:13:55.473Z,2870
2018-08-03T04:14:25.621Z,2917
2018-08-03T04:14:55.448Z,2967
2018-08-03T04:15:25.591Z,3010
2018-08-03T04:15:55.514Z,3057
2018-08-03T04:16:25.918Z,3100
2018-08-03T04:16:55.651Z,3147
2018-08-03T04:17:25.634Z,3193
2018-08-03T04:17:55.736Z,3233
2018-08-03T04:18:25.808Z,3283
2018-08-03T04:18:55.738Z,3330
2018-08-03T04:19:25.860Z,3373
2018-08-03T04:19:55.995Z,3417
2018-08-03T04:20:25.817Z,3457
2018-08-03T04:20:55.824Z,3507
2018-08-03T04:21:25.914Z,3553
2018-08-03T04:21:55.933Z,3600
2018-08-03T04:22:25.929Z,3637
2018-08-03T04:22:55.977Z,3683
2018-08-03T04:23:26.045Z,3730
2018-08-03T04:23:56.025Z,3777
2018-08-03T04:24:26.043Z,3823
2018-08-03T04:24:56.191Z,3870
2018-08-03T04:25:26.155Z,3913
2018-08-03T04:25:56.161Z,3957
2018-08-03T04:26:26.170Z,4007
2018-08-03T04:26:56.179Z,4050
2018-08-03T04:27:26.276Z,4090
2018-08-03T04:27:56.260Z,4137
2018-08-03T04:28:26.369Z,4180
2018-08-03T04:28:56.337Z,4220
2018-08-03T04:29:26.407Z,4267
2018-08-03T04:29:56.519Z,4300
2018-08-03T04:30:26.496Z,4343
2018-08-03T04:30:56.474Z,4387
2018-08-03T04:31:26.474Z,4423
2018-08-03T04:31:56.556Z,4463
2018-08-03T04:32:26.614Z,4500
2018-08-03T04:32:56.632Z,4543
2018-08-03T04:33:26.720Z,4587
2018-08-03T04:33:56.659Z,4637
2018-08-03T04:34:26.682Z,4683
2018-08-03T04:34:56.852Z,4723
2018-08-03T04:35:26.774Z,4770
2018-08-03T04:35:56.779Z,4810
2018-08-03T04:36:26.842Z,4850
2018-08-03T04:36:56.932Z,4893
2018-08-03T04:37:26.896Z,4933
2018-08-03T04:37:56.965Z,4977
2018-08-03T04:38:27.024Z,5023
2018-08-03T04:38:57.018Z,5070
2018-08-03T04:39:27.024Z,5113
2018-08-03T04:39:57.232Z,5143
2018-08-03T04:40:27.117Z,5190
2018-08-03T04:40:57.096Z,5233
2018-08-03T04:41:27.162Z,5273
2018-08-03T04:41:57.135Z,5310
2018-08-03T04:42:27.260Z,5347
2018-08-03T04:42:57.195Z,5383
2018-08-03T04:43:27.296Z,5417
2018-08-03T04:43:57.264Z,5453
2018-08-03T04:44:27.320Z,5490
2018-08-03T04:44:57.859Z,5530
2018-08-03T04:45:27.386Z,5560
2018-08-03T04:45:57.390Z,5600
2018-08-03T04:46:27.661Z,5640
2018-08-03T04:46:57.437Z,5680
2018-08-03T04:47:27.485Z,5717
2018-08-03T04:47:57.501Z,5753
2018-08-03T04:48:27.533Z,5787
2018-08-03T04:48:57.574Z,5827
2018-08-03T04:49:27.605Z,5867
2018-08-03T04:49:57.794Z,5907
2018-08-03T04:50:27.656Z,5950
2018-08-03T04:50:57.664Z,5980
2018-08-03T04:51:27.849Z,6023
2018-08-03T04:51:57.731Z,6063
2018-08-03T04:52:27.787Z,6097
2018-08-03T04:52:57.792Z,6140
2018-08-03T04:53:27.842Z,6177
2018-08-03T04:53:57.859Z,6223
2018-08-03T04:54:27.921Z,6257
2018-08-03T04:54:58.047Z,6287
2018-08-03T04:55:27.963Z,6313
2018-08-03T04:55:58.075Z,6400
2018-08-03T04:56:28.026Z,7090
2018-08-03T04:56:58.040Z,8017
2018-08-03T04:57:28.111Z,8373
2018-08-03T04:57:58.156Z,8237
2018-08-03T04:58:28.219Z,7857
2018-08-03T04:58:58.153Z,6907
2018-08-03T04:59:28.240Z,6747
2018-08-03T04:59:58.255Z,6843
2018-08-03T05:00:28.330Z,6827
2018-08-03T05:00:58.282Z,6770
2018-08-03T05:01:28.374Z,6850
2018-08-03T05:01:58.549Z,6810
2018-08-03T05:02:28.438Z,6777
2018-08-03T05:02:58.462Z,7037
2018-08-03T05:03:28.493Z,7040
2018-08-03T05:03:58.480Z,7357
2018-08-03T05:04:28.575Z,7100
2018-08-03T05:04:58.533Z,6987
2018-08-03T05:05:28.748Z,7100
2018-08-03T05:05:58.593Z,7073
2018-08-03T05:06:28.726Z,7157
2018-08-03T05:06:58.684Z,7117
2018-08-03T05:07:28.741Z,7037
2018-08-03T05:07:58.711Z,7057
2018-08-03T05:08:28.777Z,7077
2018-08-03T05:08:58.762Z,7140
2018-08-03T05:09:28.864Z,7180
2018-08-03T05:09:58.926Z,7257
2018-08-03T05:10:29.000Z,7250
2018-08-03T05:10:58.919Z,7297
2018-08-03T05:11:28.940Z,7253
2018-08-03T05:11:59.061Z,7360
2018-08-03T05:12:29.048Z,7400
2018-08-03T05:12:59.080Z,7467
2018-08-03T05:13:29.134Z,7477
2018-08-03T05:13:59.126Z,7533
2018-08-03T05:14:29.189Z,7683
2018-08-03T05:14:59.186Z,7970
2018-08-03T05:15:29.444Z,8273
2018-08-03T05:15:59.245Z,8337
2018-08-03T05:16:29.669Z,8133
2018-08-03T05:16:59.406Z,7727
2018-08-03T05:17:29.443Z,7697
2018-08-03T05:17:59.436Z,7700
2018-08-03T05:18:29.444Z,7900
2018-08-03T05:18:59.477Z,8037
2018-08-03T05:19:29.546Z,7960
2018-08-03T05:19:59.501Z,7923
2018-08-03T05:20:29.710Z,7930
2018-08-03T05:20:59.630Z,7897
2018-08-03T05:21:29.687Z,8203
2018-08-03T05:21:59.672Z,8173
2018-08-03T05:22:29.707Z,8113
2018-08-03T05:22:59.808Z,8073
2018-08-03T05:23:59.803Z,8107
2018-08-03T05:24:29.821Z,8117
2018-08-03T05:24:59.922Z,8183
2018-08-03T05:25:30.015Z,8700
2018-08-03T05:25:59.975Z,8850
2018-08-03T05:26:29.942Z,9143
2018-08-03T05:26:59.978Z,9097
2018-08-03T05:27:30.017Z,9207
2018-08-03T05:28:00.044Z,10537
2018-08-03T05:28:30.079Z,11410
2018-08-03T05:29:00.149Z,11803
2018-08-03T05:29:30.147Z,10897
2018-08-03T05:30:00.178Z,8610
2018-08-03T05:30:30.449Z,8480
2018-08-03T05:31:00.246Z,8450
2018-08-03T05:31:30.289Z,8503
2018-08-03T05:32:01.169Z,8500
2018-08-03T05:32:30.334Z,8507
2018-08-03T05:33:01.593Z,8657
2018-08-03T05:33:30.390Z,9390
2018-08-03T05:34:01.467Z,10327
2018-08-03T05:34:30.452Z,11573
2018-08-03T05:35:01.680Z,11077
2018-08-03T05:35:30.860Z,11273
2018-08-03T05:36:01.788Z,11550
2018-08-03T05:36:30.557Z,12127
2018-08-03T05:37:01.023Z,11850
2018-08-03T05:37:30.630Z,11047
2018-08-03T05:38:01.152Z,10397
2018-08-03T05:38:30.658Z,9787
2018-08-03T05:39:01.505Z,9057
2018-08-03T05:39:30.743Z,9240
2018-08-03T05:40:01.702Z,9263
2018-08-03T05:40:30.915Z,9210
2018-08-03T05:41:01.703Z,9173
2018-08-03T05:41:30.838Z,9170
2018-08-03T05:42:01.767Z,9520
2018-08-03T05:42:30.994Z,9390
2018-08-03T05:43:00.968Z,9853
2018-08-03T05:43:30.983Z,10290
2018-08-03T05:44:01.253Z,10467
2018-08-03T05:44:31.124Z,10357
2018-08-03T05:45:01.655Z,9403
2018-08-03T05:45:31.108Z,9417
2018-08-03T05:46:01.101Z,9163
2018-08-03T05:46:31.456Z,9110
2018-08-03T05:47:01.638Z,9217
2018-08-03T05:47:31.249Z,9293
2018-08-03T05:48:31.279Z,9253
2018-08-03T05:49:01.793Z,9207
2018-08-03T05:49:31.346Z,9167
2018-08-03T05:50:01.347Z,9183
2018-08-03T05:50:31.416Z,9240
2018-08-03T05:51:01.406Z,9317
2018-08-03T05:51:31.527Z,9340
2018-08-03T05:52:01.475Z,9467
2018-08-03T05:52:31.668Z,9410
2018-08-03T05:53:01.986Z,9447
2018-08-03T05:53:31.614Z,9457
2018-08-03T05:54:02.013Z,9443
2018-08-03T05:54:31.719Z,9537
2018-08-03T05:55:01.660Z,9757
2018-08-03T05:55:31.715Z,10087
2018-08-03T05:56:01.754Z,10047
2018-08-03T05:56:31.756Z,9777
2018-08-03T05:57:01.987Z,9767
2018-08-03T05:57:31.837Z,9843
2018-08-03T05:58:01.887Z,9773
2018-08-03T05:58:31.903Z,9893
2018-08-03T05:59:02.406Z,10000
2018-08-03T05:59:31.965Z,9773
2018-08-03T06:00:01.986Z,9730
2018-08-03T06:00:32.024Z,9760
2018-08-03T06:01:02.125Z,9797
2018-08-03T06:01:32.109Z,9807
2018-08-03T06:02:02.096Z,9820
2018-08-03T06:02:32.155Z,9870
2018-08-03T06:03:02.171Z,9967
2018-08-03T06:03:32.222Z,10177
2018-08-03T06:04:02.422Z,10137
2018-08-03T06:04:32.240Z,10093
2018-08-03T06:05:02.291Z,10170
2018-08-03T06:05:32.356Z,10163
2018-08-03T06:06:02.365Z,10173
2018-08-03T06:06:32.418Z,10110
2018-08-03T06:07:32.464Z,10393
2018-08-03T06:08:02.629Z,10343
2018-08-03T06:08:32.674Z,10387
2018-08-03T06:09:02.667Z,10327
2018-08-03T06:09:32.652Z,10160
2018-08-03T06:10:02.614Z,10147
2018-08-03T06:10:32.640Z,10163
2018-08-03T06:11:02.691Z,10183
2018-08-03T06:11:32.717Z,10187
2018-08-03T06:12:02.765Z,10193
2018-08-03T06:12:32.793Z,10240
2018-08-03T06:13:02.769Z,10220
2018-08-03T06:13:32.868Z,10240
2018-08-03T06:14:03.384Z,10257
2018-08-03T06:14:32.983Z,10330
2018-08-03T06:15:02.907Z,10423
2018-08-03T06:15:32.998Z,10377
2018-08-03T06:16:02.959Z,11503
2018-08-03T06:16:33.578Z,10630
2018-08-03T06:17:03.003Z,11227
2018-08-03T06:17:33.119Z,10353
2018-08-03T06:18:03.128Z,10367
2018-08-03T06:18:33.132Z,10357
2018-08-03T06:19:03.458Z,10380
2018-08-03T06:19:33.234Z,10407
2018-08-03T06:20:03.267Z,10420
2018-08-03T06:20:33.360Z,10427
2018-08-03T06:21:03.324Z,10483
2018-08-03T06:21:33.369Z,10477
2018-08-03T06:22:03.374Z,10493
2018-08-03T06:22:33.377Z,10593
2018-08-03T06:23:03.481Z,10720
2018-08-03T06:23:33.450Z,10817
2018-08-03T06:24:03.618Z,10577
2018-08-03T06:24:33.504Z,10603
2018-08-03T06:25:03.641Z,10613
2018-08-03T06:25:33.597Z,10630
2018-08-03T06:26:03.643Z,10673
2018-08-03T06:26:33.678Z,10717
2018-08-03T06:27:03.693Z,10727
2018-08-03T06:27:33.698Z,10793
2018-08-03T06:28:03.699Z,10850
2018-08-03T06:28:33.785Z,10823
2018-08-03T06:29:03.884Z,10880
2018-08-03T06:29:33.847Z,10913
2018-08-03T06:30:03.824Z,11433
2018-08-03T06:30:33.896Z,11130
2018-08-03T06:31:03.899Z,11017
2018-08-03T06:31:33.939Z,11720
2018-08-03T06:32:03.973Z,11580
2018-08-03T06:32:33.993Z,11033
2018-08-03T06:33:04.025Z,11043
2018-08-03T06:33:34.062Z,11430
2018-08-03T06:34:04.206Z,11433
2018-08-03T06:34:34.113Z,12047
2018-08-03T06:35:04.140Z,12380
2018-08-03T06:35:34.183Z,11943
2018-08-03T06:36:04.219Z,12657
2018-08-03T06:36:34.295Z,11840
2018-08-03T06:37:04.333Z,11813
2018-08-03T06:37:34.353Z,11900
2018-08-03T06:38:04.320Z,11870
2018-08-03T06:38:34.417Z,11803
2018-08-03T06:39:04.532Z,11400
2018-08-03T06:39:34.474Z,11210
2018-08-03T06:40:04.462Z,11200
2018-08-03T06:40:34.532Z,11197
2018-08-03T06:41:04.511Z,11173
2018-08-03T06:41:34.570Z,11553
2018-08-03T06:42:04.675Z,11980
2018-08-03T06:42:34.677Z,11493
2018-08-03T06:43:04.704Z,11837
2018-08-03T06:43:34.724Z,11387
2018-08-03T06:44:04.939Z,12017
2018-08-03T06:44:34.787Z,12007
2018-08-03T06:45:04.743Z,11947
2018-08-03T06:45:34.799Z,12677
2018-08-03T06:46:04.883Z,11830
2018-08-03T06:46:35.109Z,11470
2018-08-03T06:47:04.887Z,11750
2018-08-03T06:47:34.932Z,12187
2018-08-03T06:48:04.949Z,14043
2018-08-03T06:48:35.048Z,12200
2018-08-03T06:49:05.263Z,14200
2018-08-03T06:49:35.071Z,12053
2018-08-03T06:50:05.058Z,12097
2018-08-03T06:50:35.155Z,12047
2018-08-03T06:51:05.124Z,12513
2018-08-03T06:51:35.210Z,14227
2018-08-03T06:52:05.155Z,12070
2018-08-03T06:52:35.334Z,12433
2018-08-03T06:53:05.302Z,12493
2018-08-03T06:53:35.365Z,11673
2018-08-03T06:54:05.665Z,11430
2018-08-03T06:54:35.441Z,11440
2018-08-03T06:55:05.548Z,11463
2018-08-03T06:55:35.620Z,11493
2018-08-03T06:56:05.562Z,11490
2018-08-03T06:56:35.566Z,11497
2018-08-03T06:57:05.572Z,11513
2018-08-03T06:57:35.737Z,11550
2018-08-03T06:58:05.637Z,11737
2018-08-03T06:58:35.710Z,11567
2018-08-03T06:59:05.965Z,11617
2018-08-03T07:00:05.754Z,11697
2018-08-03T07:00:35.795Z,11660
2018-08-03T07:01:05.822Z,11690
2018-08-03T07:01:35.882Z,11730
2018-08-03T07:02:05.841Z,11753
2018-08-03T07:02:35.886Z,11800
2018-08-03T07:03:36.021Z,12327
2018-08-03T07:04:06.109Z,12247
2018-08-03T07:04:36.316Z,12043
2018-08-03T07:05:06.110Z,13510
2018-08-03T07:05:36.267Z,13183
2018-08-03T07:06:06.192Z,12650
2018-08-03T07:06:36.194Z,13030
2018-08-03T07:07:06.235Z,12213
2018-08-03T07:07:36.237Z,11977
2018-08-03T07:08:06.241Z,12297
2018-08-03T07:08:36.464Z,12040
2018-08-03T07:09:06.843Z,12200
2018-08-03T07:09:36.419Z,12273
2018-08-03T07:10:06.484Z,12790
2018-08-03T07:10:36.482Z,13060
2018-08-03T07:11:06.638Z,12607
2018-08-03T07:11:36.501Z,12827
2018-08-03T07:12:06.473Z,12847
2018-08-03T07:12:36.552Z,12250
2018-08-03T07:13:06.529Z,12447
2018-08-03T07:13:36.637Z,12310
2018-08-03T07:14:06.768Z,12210
2018-08-03T07:14:36.709Z,12303
2018-08-03T07:15:06.676Z,12193
2018-08-03T07:15:36.724Z,12220
2018-08-03T07:16:06.764Z,12333
2018-08-03T07:16:37.107Z,12410
2018-08-03T07:17:06.775Z,12423
2018-08-03T07:17:36.848Z,12850
2018-08-03T07:18:06.827Z,12423
2018-08-03T07:18:36.950Z,12727
2018-08-03T07:19:07.082Z,12660
2018-08-03T07:19:36.951Z,12527
2018-08-03T07:20:07.097Z,12683
2018-08-03T07:20:37.065Z,12490
2018-08-03T07:21:07.056Z,12523
2018-08-03T07:21:37.121Z,12520
2018-08-03T07:22:07.119Z,12560
2018-08-03T07:22:37.306Z,12607
2018-08-03T07:23:07.197Z,12620
2018-08-03T07:23:37.290Z,12637
2018-08-03T07:24:07.415Z,12647
2018-08-03T07:24:37.292Z,12820
2018-08-03T07:25:07.298Z,12713
2018-08-03T07:25:37.536Z,12750
2018-08-03T07:26:07.406Z,12753
2018-08-03T07:26:37.853Z,12777
2018-08-03T07:27:07.501Z,12810
2018-08-03T07:27:37.540Z,12917
2018-08-03T07:28:07.581Z,12853
2018-08-03T07:28:37.696Z,14133
2018-08-03T07:29:07.708Z,16037
2018-08-03T07:31:37.875Z,14017
2018-08-03T07:32:07.735Z,12943
2018-08-03T07:32:37.867Z,13060
2018-08-03T07:33:07.861Z,13000
2018-08-03T07:33:37.963Z,13057
2018-08-03T07:34:08.166Z,13103
2018-08-03T07:34:37.909Z,13153
2018-08-03T07:35:07.945Z,17163
2018-08-03T07:35:38.019Z,13250
2018-08-03T07:36:07.982Z,16420
2018-08-03T07:36:38.310Z,14620
2018-08-03T07:37:08.064Z,13773
2018-08-03T07:37:38.084Z,13750
2018-08-03T07:38:08.154Z,13517
2018-08-03T07:38:38.148Z,14053
2018-08-03T07:39:08.507Z,15650
2018-08-03T07:39:38.239Z,14073
2018-08-03T07:40:08.320Z,13757
2018-08-03T07:40:38.370Z,13667
2018-08-03T07:41:08.318Z,13540
2018-08-03T07:41:38.519Z,13520
2018-08-03T07:42:08.369Z,13797
2018-08-03T07:42:38.403Z,13557
2018-08-03T07:43:08.549Z,13607
2018-08-03T07:43:38.523Z,13630
2018-08-03T07:44:08.498Z,13643
2018-08-03T07:44:38.675Z,13663
2018-08-03T07:45:08.608Z,13707
2018-08-03T07:45:38.636Z,14000
2018-08-03T07:46:08.639Z,13797
2018-08-03T07:46:39.186Z,14573
2018-08-03T07:47:08.704Z,14123
2018-08-03T07:47:38.754Z,15220
2018-08-03T07:48:08.790Z,15047
2018-08-03T07:48:38.956Z,15503
2018-08-03T07:49:09.045Z,18600
2018-08-03T07:49:39.066Z,18683
2018-08-03T07:50:08.909Z,21203
2018-08-03T07:50:38.973Z,21053
2018-08-03T07:51:09.299Z,20920
2018-08-03T07:51:39.408Z,20950
2018-08-03T07:52:09.061Z,17537
2018-08-03T07:52:39.096Z,16250
2018-08-03T07:53:09.112Z,19130
2018-08-03T07:53:39.109Z,19560
2018-08-03T07:54:09.177Z,18960
2018-08-03T07:54:39.243Z,27187
2018-08-03T07:55:09.221Z,19677
2018-08-03T07:55:39.236Z,35380
2018-08-03T07:56:09.237Z,30613
2018-08-03T07:56:39.813Z,36973
2018-08-03T07:57:09.334Z,33627
2018-08-03T07:57:39.556Z,43427
2018-08-03T07:58:09.481Z,55070
2018-08-03T07:58:39.434Z,29433
2018-08-03T07:59:09.498Z,36357
2018-08-03T07:59:39.742Z,21417
2018-08-03T08:00:09.558Z,20023
2018-08-03T08:00:39.783Z,23087
2018-08-03T08:01:09.605Z,17047
2018-08-03T08:01:39.939Z,15867
2018-08-03T08:02:09.631Z,16787
2018-08-03T08:02:39.773Z,19350
2018-08-03T08:03:09.778Z,16753
2018-08-03T08:03:40.050Z,18817
2018-08-03T08:04:09.744Z,20980
2018-08-03T08:04:39.936Z,21437
2018-08-03T08:05:09.837Z,19053
2018-08-03T08:05:39.866Z,19200
2018-08-03T08:06:10.044Z,20857
2018-08-03T08:06:39.986Z,19687
2018-08-03T08:07:10.097Z,20807
2018-08-03T08:07:40.102Z,19360
2018-08-03T08:08:10.025Z,19797
2018-08-03T08:08:40.028Z,23430
2018-08-03T08:09:10.036Z,17437
2018-08-03T08:09:40.256Z,22853
2018-08-03T08:10:10.093Z,19207
2018-08-03T08:10:40.201Z,16603
2018-08-03T08:11:10.178Z,42603
2018-08-03T08:11:40.564Z,34133
2018-08-03T08:12:10.507Z,21903
2018-08-03T08:12:41.224Z,34810
2018-08-03T08:13:11.203Z,34113
2018-08-03T08:13:41.297Z,30997
2018-08-03T08:14:11.368Z,22970
2018-08-03T08:14:42.393Z,28783
2018-08-03T08:15:12.538Z,26020
2018-08-03T08:15:42.321Z,27263
2018-08-03T08:16:12.363Z,28857
2018-08-03T08:16:42.301Z,28037
2018-08-03T08:17:12.308Z,20540
2018-08-03T08:17:42.386Z,26917
2018-08-03T08:18:12.369Z,25403
2018-08-03T08:18:42.424Z,31653
2018-08-03T08:19:12.424Z,31463
2018-08-03T08:19:42.492Z,20470
2018-08-03T08:20:12.560Z,17337
2018-08-03T08:20:42.536Z,20100
2018-08-03T08:21:12.561Z,18797
2018-08-03T08:21:42.868Z,33170
2018-08-03T08:22:12.632Z,25057
2018-08-03T08:22:42.687Z,17277
2018-08-03T08:23:12.801Z,27000
2018-08-03T08:23:42.811Z,21333
2018-08-03T08:24:12.776Z,17120
2018-08-03T08:24:42.812Z,45690
2018-08-03T08:25:12.821Z,22110
2018-08-03T08:25:42.868Z,20620
2018-08-03T08:26:12.854Z,57007
2018-08-03T08:26:43.493Z,50347
2018-08-03T08:27:12.965Z,39593
2018-08-03T08:27:42.932Z,19033
2018-08-03T08:28:12.957Z,28783
2018-08-03T08:28:43.105Z,27970
2018-08-03T08:29:13.023Z,34713
2018-08-03T08:29:43.082Z,40150
2018-08-03T08:30:13.070Z,20153
2018-08-03T08:30:43.162Z,21810
2018-08-03T08:31:13.189Z,17643
2018-08-03T08:31:43.459Z,18080
2018-08-03T08:32:13.233Z,19127
2018-08-03T08:32:43.289Z,26200
2018-08-03T08:33:13.313Z,38723
2018-08-03T08:33:43.443Z,43390
2018-08-03T08:34:13.422Z,39770
2018-08-03T08:34:43.437Z,31877
2018-08-03T08:35:13.463Z,24993
2018-08-03T08:35:43.449Z,24160
2018-08-03T08:36:13.540Z,24420
2018-08-03T08:36:44.073Z,26020
2018-08-03T08:37:13.524Z,23770
2018-08-03T08:37:43.705Z,24043
2018-08-03T08:38:13.858Z,29773
2018-08-03T08:38:43.835Z,24153
2018-08-03T08:39:13.690Z,22637
2018-08-03T08:39:43.786Z,27307
2018-08-03T08:40:13.706Z,57777
2018-08-03T08:40:43.747Z,27310
2018-08-03T08:41:13.765Z,45737
2018-08-03T08:41:44.019Z,29713
2018-08-03T08:42:13.839Z,37293
2018-08-03T08:42:43.878Z,91637
2018-08-03T08:43:13.939Z,83063
2018-08-03T08:43:44.159Z,65207
2018-08-03T08:44:13.957Z,77560
2018-08-03T08:44:43.983Z,76247
2018-08-03T08:45:14.002Z,92730
2018-08-03T08:45:44.046Z,83997
2018-08-03T08:46:14.111Z,89607
2018-08-03T08:46:44.636Z,89317
2018-08-03T08:47:14.147Z,92483
2018-08-03T08:47:44.173Z,92863
2018-08-03T08:48:14.284Z,63133
2018-08-03T08:48:44.258Z,92707
2018-08-03T08:49:14.252Z,69323
2018-08-03T08:49:44.312Z,59303
2018-08-03T08:50:14.363Z,89677
2018-08-03T08:50:44.429Z,93740
2018-08-03T08:51:14.414Z,90883
2018-08-03T08:51:44.727Z,92450
2018-08-03T08:52:14.470Z,87870
2018-08-03T08:52:44.516Z,80670
2018-08-03T08:53:14.636Z,83530
2018-08-03T08:53:44.639Z,76610
2018-08-03T08:54:14.644Z,89800
2018-08-03T08:54:44.643Z,93017
2018-08-03T08:55:14.649Z,94393
2018-08-03T08:55:44.676Z,76840
2018-08-03T08:56:14.737Z,95093
2018-08-03T08:56:44.874Z,95313
2018-08-03T08:57:14.790Z,95443
2018-08-03T08:57:44.831Z,95330
2018-08-03T08:58:14.851Z,95423
2018-08-03T08:58:44.924Z,95660
2018-08-03T08:59:14.994Z,96167
2018-08-03T08:59:45.131Z,96560
2018-08-03T09:00:15.022Z,96920
2018-08-03T09:00:45.024Z,96853
2018-08-03T09:01:15.155Z,96953
2018-08-03T09:01:45.397Z,97073
2018-08-03T09:02:15.114Z,97557
2018-08-03T09:02:45.147Z,97770
2018-08-03T09:03:15.218Z,97773
2018-08-03T09:03:45.199Z,97727
2018-08-03T09:04:15.243Z,97980
2018-08-03T09:04:45.247Z,98353
2018-08-03T09:05:15.281Z,98813
2018-08-03T09:05:45.328Z,98733
2018-08-03T09:06:15.304Z,98753
2018-08-03T09:06:45.666Z,99017
2018-08-03T09:07:15.385Z,99197
2018-08-03T09:07:45.505Z,99137
2018-08-03T09:08:15.529Z,99537
2018-08-03T09:08:45.516Z,99697
2018-08-03T09:09:15.572Z,100157
2018-08-03T09:09:45.567Z,100510
2018-08-03T09:10:15.668Z,100607
2018-08-03T09:10:45.668Z,100760
2018-08-03T09:11:15.610Z,100813
2018-08-03T09:11:45.960Z,100950
2018-08-03T09:12:15.726Z,101337
2018-08-03T09:12:45.816Z,101293
2018-08-03T09:13:15.833Z,101637
2018-08-03T09:13:45.802Z,101667
2018-08-03T09:14:15.852Z,101657
2018-08-03T09:14:45.900Z,101637
2018-08-03T09:15:15.857Z,102100
2018-08-03T09:15:45.936Z,102470
2018-08-03T09:16:15.978Z,102187
2018-08-03T09:16:46.215Z,102617
2018-08-03T09:17:15.997Z,102583
2018-08-03T09:17:46.177Z,102863
2018-08-03T09:18:16.087Z,103143
2018-08-03T09:18:46.136Z,103260
2018-08-03T09:19:16.118Z,103223
2018-08-03T09:19:46.267Z,103207
2018-08-03T09:20:16.247Z,103043
2018-08-03T09:20:46.236Z,103273
2018-08-03T09:21:16.306Z,103573
2018-08-03T09:21:46.437Z,103867
2018-08-03T09:22:16.323Z,103923
2018-08-03T09:22:46.404Z,104110
2018-08-03T09:23:16.427Z,104143
2018-08-03T09:23:46.518Z,104493
2018-08-03T09:24:16.437Z,104413
2018-08-03T09:24:46.594Z,104447
2018-08-03T09:25:16.576Z,104913
2018-08-03T09:25:46.565Z,104997
2018-08-03T09:26:16.548Z,105143
2018-08-03T09:26:46.869Z,105193
2018-08-03T09:27:16.793Z,105270
2018-08-03T09:27:47.180Z,105353
2018-08-03T09:28:16.780Z,105390
2018-08-03T09:28:46.726Z,105657
2018-08-03T09:29:16.735Z,105503
2018-08-03T09:29:46.788Z,105483
2018-08-03T09:30:16.819Z,105463
2018-08-03T09:30:46.892Z,105803
2018-08-03T09:31:17.012Z,105820
2018-08-03T09:31:47.177Z,105940
2018-08-03T09:32:16.905Z,106337
2018-08-03T09:32:46.956Z,106563
2018-08-03T09:33:17.015Z,106710
2018-08-03T09:33:47.017Z,106973
2018-08-03T09:34:17.035Z,107137
2018-08-03T09:34:47.206Z,107367
2018-08-03T09:35:17.103Z,107523
2018-08-03T09:35:47.173Z,107940
2018-08-03T09:36:17.209Z,107983
2018-08-03T09:36:47.483Z,108097
2018-08-03T09:37:17.249Z,108360
2018-08-03T09:37:47.336Z,108570
2018-08-03T09:38:17.277Z,108723
2018-08-03T09:38:47.385Z,108817
2018-08-03T09:39:17.335Z,108930
2018-08-03T09:39:47.435Z,108893
2018-08-03T09:40:17.472Z,108923
2018-08-03T09:40:47.497Z,109137
2018-08-03T09:41:17.479Z,109260
2018-08-03T09:41:47.855Z,109427
2018-08-03T09:42:17.552Z,109227
2018-08-03T09:42:47.685Z,109380
2018-08-03T09:43:17.681Z,109403
2018-08-03T09:43:47.668Z,109690
2018-08-03T09:44:17.740Z,109837
2018-08-03T09:44:47.753Z,110060
2018-08-03T09:45:17.755Z,110020
2018-08-03T09:45:47.864Z,109950
2018-08-03T09:46:17.830Z,110063
2018-08-03T09:46:48.007Z,110270
2018-08-03T09:47:17.912Z,110277
2018-08-03T09:48:17.985Z,110297
2018-08-03T09:48:48.007Z,110510
2018-08-03T09:49:18.048Z,110247